Watkins Glen Boot
5.463 km / 3.395 mi

All Car Categories
Driver Car Server Time Gap Laps Date
jpruden13 AMGT3 AMGT3 MP412C xfactorracing_S1 AMGT3 Wat 1:40.400 - 21 2018/10/19
Alexis Clapano AMGT3 AMGT3 BENTLEY xfactorracing_S3 AM GT3 1:40.773 0.374 6 2018/10/14
Seca AMGT3 AMGT3 458 xfactorracing_S1 AMGT3 Wat 1:41.069 0.670 42 2018/10/15
Gussy AMGT3 AMGT3 BENTLEY xfactorracing_S2 AM GT3 1:41.106 0.706 21 2018/10/21
=Fieldzy= AMGT3 AMGT3 BENTLEY xfactorracing_S3 AM GT3 1:41.167 0.767 84 2018/10/14
Merlin AMGT3 AMGT3_CAMARO xfactorracing_S1 AMGT3 Wat 1:41.274 0.875 37 2018/10/16
Alexis Clapano AMGT3 AMGT3 BMW Z4 xfactorracing_S1 AMGT3 Wat 1:41.444 1.044 9 2018/10/14
elGuapo053 AMGT3 AMGT3 BENTLEY xfactorracing_S3 AM GT3 1:41.570 1.171 22 2018/10/14
RobZee_XR_ AMGT3 AMGT3 BMW Z4 xfactorracing_S1 AMGT3 Wat 1:41.619 1.219 119 2018/10/20
Matthew Pluck AMGT3 AMGT3 SLS xfactorracing_S1 AMGT3 Wat 1:41.978 1.578 69 2018/10/19
HSVPETE AMGT3 AMGT3 MP412C xfactorracing_S1 AMGT3 Wat 1:42.413 2.013 64 2018/10/14
fez AMGT3 AMGT3 SLS xfactorracing_S1 AMGT3 Wat 1:42.483 2.083 99 2018/10/14
S S AMGT3 AMGT3_CAMARO xfactorracing_S1 AMGT3 Wat 1:42.565 2.166 10 2018/10/16
Wayne Whitmore AMGT3 AMGT3 458 xfactorracing_S3 AM GT3 1:42.619 2.219 9 2018/10/14
Rai120 AMGT3 AMGT3 BMW Z4 xfactorracing_S1 AMGT3 Wat 1:42.739 2.339 68 2018/10/16
Chrisrx AMGT3 AMGT3 SLS xfactorracing_S1 AMGT3 Wat 1:42.823 2.424 21 2018/10/20
Riftcreator AMGT3 AMGT3 BENTLEY xfactorracing_S1 AMGT3 Wat 1:43.000 2.600 6 2018/10/18
=Fieldzy= AMGT3 AMGT3 BMW Z4 xfactorracing_S1 AMGT3 Wat 1:43.002 2.602 8 2018/10/16
Aaron T AMGT3 AMGT3 MP412C xfactorracing_S1 AMGT3 Wat 1:43.018 2.618 13 2018/10/14
Riftcreator AMGT3 AMGT3_CAMARO xfactorracing_S1 AMGT3 Wat 1:43.157 2.757 13 2018/10/14
PinpointGenie AMGT3 AMGT3 MP412C xfactorracing_S1 AMGT3 Wat 1:43.208 2.809 12 2018/10/19
ErikNZ AMGT3 AMGT3 BMW Z4 xfactorracing_S1 AMGT3 Wat 1:43.265 2.866 45 2018/10/20
OR~KELVIN4TOR AMGT3 AMGT3 SLS xfactorracing_S3 AM GT3 1:43.360 2.960 22 2018/10/14
Murphys Law NZ AMGT3 AMGT3 BMW Z4 xfactorracing_S1 AMGT3 Wat 1:43.478 3.078 13 2018/10/19
Balberts AMGT3 AMGT3 SLS xfactorracing_S1 AMGT3 Wat 1:43.967 3.568 32 2018/10/14
Easty AMGT3 GT3 Z06R xfactorracing_S1 AMGT3 Wat 1:44.165 3.765 6 2018/10/14
Yoss AMGT3 AMGT3 MP412C xfactorracing_S1 AMGT3 Wat 1:44.185 3.785 8 2018/10/14
Obsc3ne AMGT3 AMGT3 799R xfactorracing_S1 AMGT3 Wat 1:44.187 3.787 7 2018/10/14
simmo AMGT3 AMGT3_CAMARO xfactorracing_S3 AM GT3 1:44.348 3.948 53 2018/10/14
=Fieldzy= AMGT3 GT3 Z06R xfactorracing_S4 AM GT3 1:44.373 3.973 6 2018/10/11
Lachlan Andrews AMGT3 GT3 Z06R xfactorracing_S2 AM GT3 1:44.415 4.015 17 2018/10/21
Stevo AMGT3 AMGT3 SLS xfactorracing_S1 AMGT3 Wat 1:44.432 4.033 8 2018/10/14
=paps= AMGT3 AMGT3 799R xfactorracing_S3 AM GT3 1:44.603 4.203 14 2018/10/13
obbzy AMGT3 GT3 Z06R xfactorracing_S1 AMGT3 Wat 1:44.627 4.227 12 2018/10/18
=Mongrel= AMGT3 AMGT3 SLS xfactorracing_S1 AMGT3 Wat 1:44.692 4.292 7 2018/10/16
jase_bec AMGT3 AMGT3 799R xfactorracing_S1 AMGT3 Wat 1:44.787 4.388 8 2018/10/14
Wayne Whitmore AMGT3 AMGT3 BMW Z4 xfactorracing_S3 AM GT3 1:44.807 4.407 14 2018/10/12
=Spacko= AMGT3 AMGT3 BENTLEY xfactorracing_S2 AM GT3 1:44.809 4.409 14 2018/10/21
Bert VanJ AMGT3 AMGT3 BENTLEY XFactorracing_S1 AM GT3 1:45.052 4.652 3 2018/12/12
Mike AMGT3 AMGT3 MP412C xfactorracing_S3 AM GT3 1:45.147 4.748 7 2018/10/14
GB AMGT3 AMGT3_CAMARO xfactorracing_S1 AMGT3 Wat 1:45.203 4.803 12 2018/10/20
jase_bec AMGT3 AMGT3_CAMARO xfactorracing_S2 AM GT3 1:45.328 4.929 2 2018/10/21
Ulee Deway AMGT3 GT3 Z06R xfactorracing_S3 AM GT3 1:45.466 5.067 26 2018/10/12
Bill Kilowatts AMGT3 AMGT3 MP412C xfactorracing_S3 AM GT3 1:45.546 5.147 30 2018/10/14
Nibiru AMGT3 AMGT3 SLS xfactorracing_S1 AMGT3 Wat 1:45.871 5.471 14 2018/10/14
Yoss AMGT3 AMGT3 SLS xfactorracing_S3 AM GT3 1:45.960 5.561 4 2018/10/13
=Knuckles= AMGT3 AMGT3 MP412C xfactorracing_S4 AM GT3 1:46.508 6.109 1 2018/10/11
Kimmo Bjorn AMGT3 AMGT3 SLS xfactorracing_S1 AMGT3 Wat 1:46.513 6.114 1 2018/10/14
Ducktape AMGT3 AMGT3_CAMARO xfactorracing_S1 AMGT3 Wat 1:46.861 6.461 1 2018/10/19
john.alc35 AMGT3 AMGT3 799R XFactorracing_S1 AM GT3 1:47.631 7.231 12 2018/12/12
Growler AMGT3 AMGT3_CAMARO xfactorracing_S2 AM GT3 1:47.826 7.426 1 2018/10/21
Franck Baroni AMGT3 AMGT3 BMW Z4 xfactorracing_S3 AM GT3 1:48.068 7.668 2 2018/10/13
OR~Dug AMGT3 AMGT3 BENTLEY xfactorracing_S1 AMGT3 Wat 1:48.095 7.695 2 2018/10/14
Riftcreator AMGT3 AMGT3 799R XFactorracing_S1 GT3 Rd1 1:48.218 7.818 2 2018/10/21
Paulot AMGT3 AMGT3 799R xfactorracing_S4 AM GT3 1:48.395 7.995 1 2018/10/10
burrows05 AMGT3 AMGT3 799R xfactorracing_S1 AMGT3 Wat 1:48.480 8.081 2 2018/10/16
temkrk AMGT3 AMGT3 BENTLEY xfactorracing_S1 AMGT3 Wat 1:48.827 8.427 4 2018/10/18
DDR~Darrell AMGT3 AMGT3 BENTLEY xfactorracing_S1 AMGT3 Wat 1:49.078 8.678 1 2018/10/14
BELL3R AMGT3 AMGT3 799R xfactorracing_S4 AM GT3 1:49.302 8.902 1 2018/10/11
johnvye AMGT3 AMGT3 MP412C XFactorracing_S1 AM GT3 1:49.692 9.292 6 2018/12/12
RPR-OvERPROoF AMGT3 AMGT3 BENTLEY xfactorracing_S1 AMGT3 Wat 1:49.771 9.371 1 2018/10/14
migalheiroteixeira AMGT3 AMGT3 799R xfactorracing_S1 AMGT3 Wat 1:50.195 9.795 4 2018/10/21
OR~wayno AMGT3 AMGT3_CAMARO XFactorracing_S1 AM GT3 1:50.681 10.281 5 2018/12/14
klimt AMGT3 AMGT3 BMW Z4 xfactorracing_S1 AMGT3 Wat 1:51.137 10.737 2 2018/10/16
LMP-ANBU Migs AMGT3 AMGT3 799R XFactorracing_S1 AM GT3 1:52.786 12.386 5 2018/12/12
RobZee_XR_ AMGT3 AMGT3 458 XFactorracing_S1 AM GT3 1:54.442 14.043 5 2018/12/12
OR~Derek57 AMGT3 AMGT3 BENTLEY XFactorracing_S1 AM GT3 1:55.699 15.300 2 2018/12/14
Fly AMGT3 AMGT3 BENTLEY XFactorracing_S1 AM GT3 1:56.341 15.942 7 2018/12/14
Marcos BENITEZ AMGT3 AMGT3 458 XFactorracing_S1 AM GT3 1:58.654 18.254 2 2018/12/14
klimt AMGT3 AMGT3 458 xfactorracing_S1 AMGT3 Wat 1:58.698 18.298 1 2018/10/16
Cruiser AMGT3 AMGT3 SLS XFactorracing_S1 AM GT3 1:59.164 18.764 2 2018/12/12
METAL666nz AMGT3 AMGT3 Z06R XFactorracing_S1 AM GT3 2:01.841 21.442 4 2018/12/14
Kristof Nemes AMGT3 AMGT3 799R XFactorracing_S1 AM GT3 2:02.445 22.045 3 2018/12/14
NinjiBDC AMGT3 AMGT3 BMW Z4 xfactorracing_S1 AMGT3 Wat 2:10.270 29.870 1 2018/10/20

Are you sure?

This file will be moved to \r2la_temp